Time;durP1;ratioP1;P1;durP2;ratioP2;P2;SDS_P1;SDS_P2;PMS_P1;PMS_P2;Temp;Humidity;BMP_temperature;BMP_pressure;BME280_temperature;BME280_humidity;BME280_pressure;Samples;Min_cycle;Max_cycle;Signal;HPM_P1;HPM_P2
2022/10/23 00:00:04;;;;;;;5.63;4.50;;;;;;;;;;1043630;28;20029;-85
2022/10/23 00:00:35;;;;;;;7.45;4.75;;;;;;;;;;1039448;28;20025;-86
2022/10/23 00:01:17;;;;;;;6.47;5.13;;;;;;;;;;1036567;28;20018;-86
2022/10/23 00:01:49;;;;;;;9.80;5.55;;;;;;;;;;1035425;28;20029;-86
2022/10/23 00:02:19;;;;;;;7.80;5.60;;;;;;;;;;1037305;28;20022;-85
2022/10/23 00:02:52;;;;;;;9.05;5.00;;;;;;;;;;1035471;28;20031;-86
2022/10/23 00:03:23;;;;;;;7.63;4.57;;;;;;;;;;1028545;28;20023;-86
2022/10/23 00:03:56;;;;;;;7.25;4.78;;;;;;;;;;1031381;28;20517;-85
2022/10/23 00:04:27;;;;;;;6.38;4.60;;;;;;;;;;1028222;28;20115;-85
2022/10/23 00:04:58;;;;;;;8.23;5.30;;;;;;;;;;1027933;28;20430;-85
2022/10/23 00:05:29;;;;;;;7.15;4.82;;;;;;;;;;1031921;28;20434;-86
2022/10/23 00:06:03;;;;;;;6.72;4.60;;;;;;;;;;1032402;28;20053;-86
2022/10/23 00:06:34;;;;;;;8.13;5.50;;;;;;;;;;1038250;28;20014;-86
2022/10/23 00:07:05;;;;;;;6.90;5.28;;;;;;;;;;1040001;28;20045;-86
2022/10/23 00:07:36;;;;;;;8.73;4.95;;;;;;;;;;1039242;28;20028;-86
2022/10/23 00:08:07;;;;;;;8.20;5.38;;;;;;;;;;1035311;28;20030;-85
2022/10/23 00:08:38;;;;;;;9.55;5.30;;;;;;;;;;1036191;28;20034;-85
2022/10/23 00:09:11;;;;;;;8.05;5.60;;;;;;;;;;1033915;28;20018;-86
2022/10/23 00:09:42;;;;;;;8.75;5.63;;;;;;;;;;1031427;28;20104;-86
2022/10/23 00:10:13;;;;;;;6.00;5.40;;;;;;;;;;1031804;28;20076;-86
2022/10/23 00:10:44;;;;;;;8.35;4.97;;;;;;;;;;1031171;28;20155;-86
2022/10/23 00:11:19;;;;;;;6.80;5.22;;;;;;;;;;1033161;28;20474;-86
2022/10/23 00:11:51;;;;;;;7.63;4.93;;;;;;;;;;1030858;28;20034;-86
2022/10/23 00:12:22;;;;;;;6.20;4.65;;;;;;;;;;1030631;28;20018;-86
2022/10/23 00:12:53;;;;;;;7.03;5.10;;;;;;;;;;1023989;28;20027;-85
2022/10/23 00:13:24;;;;;;;8.05;5.15;;;;;;;;;;1023763;28;20027;-86
2022/10/23 00:13:56;;;;;;;6.88;5.53;;;;;;;;;;1028569;28;20022;-86
2022/10/23 00:14:27;;;;;;;7.88;5.53;;;;;;;;;;1035490;28;20113;-86
2022/10/23 00:14:58;;;;;;;8.20;5.43;;;;;;;;;;1035548;28;20097;-86
2022/10/23 00:15:29;;;;;;;8.05;5.40;;;;;;;;;;1039648;28;20022;-86
2022/10/23 00:16:00;;;;;;;6.85;5.15;;;;;;;;;;1039145;28;20021;-86
2022/10/23 00:16:32;;;;;;;6.45;4.57;;;;;;;;;;1032751;28;20022;-85
2022/10/23 00:17:03;;;;;;;7.47;5.60;;;;;;;;;;1035484;28;20048;-86
2022/10/23 00:17:34;;;;;;;9.70;6.30;;;;;;;;;;1039602;28;20025;-85
2022/10/23 00:18:05;;;;;;;6.45;5.30;;;;;;;;;;1035161;28;20018;-85
2022/10/23 00:18:36;;;;;;;7.35;5.40;;;;;;;;;;1035376;28;20053;-85
2022/10/23 00:19:07;;;;;;;7.05;5.10;;;;;;;;;;1031846;28;20062;-86
2022/10/23 00:19:38;;;;;;;8.40;5.60;;;;;;;;;;1035614;28;20014;-86
2022/10/23 00:20:10;;;;;;;9.27;5.50;;;;;;;;;;1039258;28;20072;-86
2022/10/23 00:20:41;;;;;;;7.35;5.38;;;;;;;;;;1035660;28;20022;-86
2022/10/23 00:21:13;;;;;;;6.43;5.25;;;;;;;;;;1039615;28;20117;-84
2022/10/23 00:21:44;;;;;;;7.88;4.40;;;;;;;;;;1035469;28;20025;-86
2022/10/23 00:22:15;;;;;;;6.30;4.97;;;;;;;;;;1031458;28;20041;-86
2022/10/23 00:22:46;;;;;;;8.93;4.93;;;;;;;;;;1034529;28;20648;-86
2022/10/23 00:23:17;;;;;;;5.80;4.97;;;;;;;;;;1030901;28;20041;-85
2022/10/23 00:23:48;;;;;;;11.02;5.38;;;;;;;;;;1032344;28;20022;-86
2022/10/23 00:24:19;;;;;;;6.90;4.43;;;;;;;;;;1031427;28;20559;-85
2022/10/23 00:24:50;;;;;;;10.50;5.30;;;;;;;;;;1032570;28;20497;-86
2022/10/23 00:25:21;;;;;;;9.82;5.10;;;;;;;;;;1035139;28;20109;-85
2022/10/23 00:25:52;;;;;;;9.40;5.45;;;;;;;;;;1035339;28;20026;-86
2022/10/23 00:26:24;;;;;;;6.32;4.88;;;;;;;;;;1036197;28;20085;-86
2022/10/23 00:26:55;;;;;;;6.53;4.28;;;;;;;;;;1035571;28;20024;-86
2022/10/23 00:27:26;;;;;;;9.20;5.22;;;;;;;;;;1035009;28;20068;-86
2022/10/23 00:27:57;;;;;;;8.68;5.50;;;;;;;;;;1035460;28;20026;-87
2022/10/23 00:28:28;;;;;;;8.93;5.32;;;;;;;;;;1034884;28;20018;-86
2022/10/23 00:28:59;;;;;;;8.15;5.22;;;;;;;;;;1035830;28;20072;-86
2022/10/23 00:29:30;;;;;;;7.07;4.68;;;;;;;;;;1030977;28;20072;-85
2022/10/23 00:30:02;;;;;;;9.82;5.22;;;;;;;;;;1034757;28;20028;-85
2022/10/23 00:30:33;;;;;;;7.88;4.95;;;;;;;;;;1038988;28;20024;-85
2022/10/23 00:31:05;;;;;;;11.05;5.05;;;;;;;;;;1035214;28;20025;-85
2022/10/23 00:31:36;;;;;;;6.38;5.10;;;;;;;;;;1031713;28;20104;-85
2022/10/23 00:32:07;;;;;;;7.85;5.50;;;;;;;;;;1031438;28;20070;-85
2022/10/23 00:32:38;;;;;;;5.05;4.50;;;;;;;;;;1031036;28;20026;-86
2022/10/23 00:33:09;;;;;;;8.98;5.53;;;;;;;;;;1031639;28;20057;-85
2022/10/23 00:33:41;;;;;;;6.47;5.13;;;;;;;;;;1038323;28;20024;-85
2022/10/23 00:34:11;;;;;;;5.72;4.80;;;;;;;;;;1032222;28;20425;-85
2022/10/23 00:34:43;;;;;;;8.95;5.25;;;;;;;;;;1035149;28;20564;-85
2022/10/23 00:35:14;;;;;;;7.45;5.28;;;;;;;;;;1040513;28;20014;-85
2022/10/23 00:35:45;;;;;;;7.93;5.00;;;;;;;;;;1039205;28;20041;-86
2022/10/23 00:36:17;;;;;;;9.02;5.80;;;;;;;;;;1039440;28;20550;-85
2022/10/23 00:36:48;;;;;;;10.20;6.00;;;;;;;;;;1038829;28;20048;-84
2022/10/23 00:37:19;;;;;;;9.00;5.00;;;;;;;;;;1035645;28;20417;-85
2022/10/23 00:37:50;;;;;;;11.07;5.60;;;;;;;;;;1035328;28;20052;-85
2022/10/23 00:38:21;;;;;;;6.35;5.45;;;;;;;;;;1031481;28;20685;-85
2022/10/23 00:38:52;;;;;;;6.55;5.03;;;;;;;;;;1031553;28;20030;-86
2022/10/23 00:39:23;;;;;;;7.90;4.63;;;;;;;;;;1036809;28;20041;-85
2022/10/23 00:39:54;;;;;;;8.25;5.45;;;;;;;;;;1035490;28;20469;-84
2022/10/23 00:40:25;;;;;;;8.70;5.00;;;;;;;;;;1039805;28;20019;-86
2022/10/23 00:40:56;;;;;;;6.80;5.18;;;;;;;;;;1039210;28;20049;-86
2022/10/23 00:41:29;;;;;;;6.45;4.38;;;;;;;;;;1034998;28;20022;-86
2022/10/23 00:42:00;;;;;;;8.75;4.47;;;;;;;;;;1033958;28;20026;-85
2022/10/23 00:42:31;;;;;;;9.13;5.15;;;;;;;;;;1035133;28;20034;-85
2022/10/23 00:43:02;;;;;;;7.65;5.07;;;;;;;;;;1035156;28;20033;-85
2022/10/23 00:43:33;;;;;;;5.57;4.43;;;;;;;;;;1040176;28;20033;-86
2022/10/23 00:44:07;;;;;;;5.88;5.28;;;;;;;;;;1042831;28;20450;-87
2022/10/23 00:44:40;;;;;;;6.75;4.68;;;;;;;;;;1035864;28;20033;-86
2022/10/23 00:45:19;;;;;;;10.93;5.53;;;;;;;;;;1034826;28;20066;-86
2022/10/23 00:45:50;;;;;;;13.27;5.82;;;;;;;;;;1035356;28;20033;-85
2022/10/23 00:46:21;;;;;;;8.45;5.13;;;;;;;;;;1035280;28;20026;-86
2022/10/23 00:46:52;;;;;;;5.32;4.68;;;;;;;;;;1039973;28;20028;-85
2022/10/23 00:47:23;;;;;;;9.25;4.60;;;;;;;;;;1043233;28;20043;-86
2022/10/23 00:47:54;;;;;;;6.68;4.88;;;;;;;;;;1038880;28;20087;-86
2022/10/23 00:48:26;;;;;;;7.95;4.85;;;;;;;;;;1035234;28;20029;-86
2022/10/23 00:48:58;;;;;;;6.75;4.40;;;;;;;;;;1034501;28;20022;-86
2022/10/23 00:49:29;;;;;;;8.23;4.40;;;;;;;;;;1032369;28;20030;-86
2022/10/23 00:50:00;;;;;;;7.72;4.70;;;;;;;;;;1035016;28;20125;-86
2022/10/23 00:50:32;;;;;;;5.68;4.75;;;;;;;;;;1037508;28;20018;-86
2022/10/23 00:51:03;;;;;;;7.60;5.30;;;;;;;;;;1039282;28;20044;-86
2022/10/23 00:51:51;;;;;;;7.30;4.65;;;;;;;;;;1034955;28;20049;-85
2022/10/23 00:52:22;;;;;;;7.55;5.32;;;;;;;;;;1035248;28;20017;-86
2022/10/23 00:52:53;;;;;;;9.13;5.45;;;;;;;;;;1035071;28;20342;-86
2022/10/23 00:53:24;;;;;;;7.13;4.93;;;;;;;;;;1035132;28;20077;-85
2022/10/23 00:53:58;;;;;;;6.95;5.20;;;;;;;;;;1033735;28;20081;-85
2022/10/23 00:54:29;;;;;;;7.65;5.35;;;;;;;;;;1036466;28;20109;-85
2022/10/23 00:55:01;;;;;;;9.85;5.40;;;;;;;;;;1035004;28;20028;-86
2022/10/23 00:55:32;;;;;;;5.50;4.80;;;;;;;;;;1034073;28;20151;-85
2022/10/23 00:56:03;;;;;;;9.02;4.13;;;;;;;;;;1031419;28;20023;-85
2022/10/23 00:56:36;;;;;;;8.05;4.90;;;;;;;;;;1031439;28;20022;-86
2022/10/23 00:57:11;;;;;;;8.73;5.22;;;;;;;;;;1031913;28;20357;-86
2022/10/23 00:57:42;;;;;;;5.68;4.60;;;;;;;;;;1031884;28;20022;-86
2022/10/23 00:58:14;;;;;;;7.38;4.75;;;;;;;;;;1035218;28;20022;-85
2022/10/23 00:58:45;;;;;;;10.15;5.47;;;;;;;;;;1036304;28;20495;-85
2022/10/23 00:59:16;;;;;;;8.63;4.75;;;;;;;;;;1039317;28;20514;-84
2022/10/23 00:59:47;;;;;;;11.68;4.97;;;;;;;;;;1039932;28;20238;-86
2022/10/23 01:00:20;;;;;;;4.70;4.10;;;;;;;;;;1034966;28;20117;-85
2022/10/23 01:00:54;;;;;;;7.40;4.70;;;;;;;;;;1031094;28;20034;-85
2022/10/23 01:01:24;;;;;;;6.72;4.63;;;;;;;;;;1027999;28;20122;-85
2022/10/23 01:01:55;;;;;;;6.70;5.35;;;;;;;;;;1027762;28;20025;-84
2022/10/23 01:02:27;;;;;;;14.63;5.50;;;;;;;;;;1032499;28;20045;-85
2022/10/23 01:02:57;;;;;;;7.57;5.10;;;;;;;;;;1031371;28;20058;-85
2022/10/23 01:03:29;;;;;;;14.38;5.18;;;;;;;;;;1031373;28;20018;-86
2022/10/23 01:04:01;;;;;;;9.32;4.95;;;;;;;;;;1032416;28;20022;-84
2022/10/23 01:04:32;;;;;;;5.53;4.47;;;;;;;;;;1031611;28;20125;-85
2022/10/23 01:05:03;;;;;;;9.02;5.05;;;;;;;;;;1032551;28;20022;-86
2022/10/23 01:05:53;;;;;;;8.25;4.63;;;;;;;;;;1030894;28;20019;-86
2022/10/23 01:06:37;;;;;;;10.05;4.45;;;;;;;;;;1029799;28;20034;-85
2022/10/23 01:07:15;;;;;;;8.63;4.97;;;;;;;;;;1031038;28;20062;-85
2022/10/23 01:07:56;;;;;;;6.00;4.10;;;;;;;;;;1031259;28;20030;-85
2022/10/23 01:08:31;;;;;;;7.72;4.88;;;;;;;;;;1035086;28;20137;-85
2022/10/23 01:09:21;;;;;;;7.68;5.05;;;;;;;;;;1039264;28;20018;-86
2022/10/23 01:09:58;;;;;;;7.97;4.93;;;;;;;;;;1036083;28;20044;-86
2022/10/23 01:10:32;;;;;;;7.63;4.57;;;;;;;;;;1035145;28;20580;-86
2022/10/23 01:11:19;;;;;;;6.50;4.82;;;;;;;;;;1038629;28;20376;-85
2022/10/23 01:11:57;;;;;;;9.40;4.80;;;;;;;;;;1039063;28;20029;-84
2022/10/23 01:12:32;;;;;;;5.68;4.20;;;;;;;;;;1034625;28;20120;-85
2022/10/23 01:13:11;;;;;;;6.55;5.43;;;;;;;;;;1032881;28;20097;-85
2022/10/23 01:13:51;;;;;;;9.10;4.57;;;;;;;;;;1033779;28;20022;-85
2022/10/23 01:14:40;;;;;;;9.65;5.03;;;;;;;;;;1040942;28;20021;-85
2022/10/23 01:15:14;;;;;;;10.10;4.68;;;;;;;;;;1039725;28;20439;-85
2022/10/23 01:15:52;;;;;;;6.00;4.15;;;;;;;;;;1037676;28;20030;-85
2022/10/23 01:16:26;;;;;;;8.95;4.18;;;;;;;;;;1036836;28;20022;-85
2022/10/23 01:17:04;;;;;;;7.30;4.18;;;;;;;;;;1034987;28;20022;-85
2022/10/23 01:17:38;;;;;;;9.75;5.22;;;;;;;;;;1036067;28;20116;-85
2022/10/23 01:18:16;;;;;;;6.20;4.22;;;;;;;;;;1037221;28;20034;-86
2022/10/23 01:18:51;;;;;;;6.72;4.93;;;;;;;;;;1035310;28;20882;-85
2022/10/23 01:19:34;;;;;;;6.72;4.97;;;;;;;;;;1033343;28;20030;-85
2022/10/23 01:20:05;;;;;;;7.18;5.10;;;;;;;;;;1035774;28;20014;-85
2022/10/23 01:20:44;;;;;;;5.37;3.93;;;;;;;;;;1033483;28;20058;-85
2022/10/23 01:21:21;;;;;;;9.57;4.53;;;;;;;;;;1031656;28;20351;-85
2022/10/23 01:22:05;;;;;;;9.55;4.85;;;;;;;;;;1033402;28;20017;-86
2022/10/23 01:22:54;;;;;;;8.85;4.22;;;;;;;;;;1033643;28;20061;-85
2022/10/23 01:23:34;;;;;;;7.15;4.57;;;;;;;;;;1034296;28;20480;-84
2022/10/23 01:24:23;;;;;;;7.97;5.35;;;;;;;;;;1035054;28;20052;-85
2022/10/23 01:24:59;;;;;;;10.10;4.43;;;;;;;;;;1035082;28;20070;-87
2022/10/23 01:25:48;;;;;;;8.50;4.15;;;;;;;;;;1037889;28;20030;-86
2022/10/23 01:26:19;;;;;;;7.60;5.20;;;;;;;;;;1035156;28;20022;-86
2022/10/23 01:26:50;;;;;;;8.23;4.30;;;;;;;;;;1042532;28;20078;-85
2022/10/23 01:27:31;;;;;;;7.30;4.40;;;;;;;;;;1043496;28;20013;-85
2022/10/23 01:28:05;;;;;;;6.93;4.57;;;;;;;;;;1044321;28;20017;-86
2022/10/23 01:28:43;;;;;;;13.23;5.50;;;;;;;;;;1043277;28;20021;-86
2022/10/23 01:29:24;;;;;;;8.32;5.45;;;;;;;;;;1043420;28;20071;-86
2022/10/23 01:29:57;;;;;;;8.77;4.78;;;;;;;;;;1039255;28;20036;-85
2022/10/23 01:30:29;;;;;;;9.65;5.10;;;;;;;;;;1038797;28;20033;-86
2022/10/23 01:31:01;;;;;;;11.15;5.05;;;;;;;;;;1035057;28;20026;-85
2022/10/23 01:31:32;;;;;;;5.43;3.78;;;;;;;;;;1035436;28;20022;-85
2022/10/23 01:32:10;;;;;;;6.93;4.35;;;;;;;;;;1031061;28;20027;-85
2022/10/23 01:32:53;;;;;;;6.10;4.15;;;;;;;;;;1032524;28;20025;-86
2022/10/23 01:33:27;;;;;;;9.25;4.85;;;;;;;;;;1039189;28;20022;-87
2022/10/23 01:34:01;;;;;;;5.18;3.97;;;;;;;;;;1035954;28;20088;-86
2022/10/23 01:34:55;;;;;;;11.45;4.57;;;;;;;;;;1035173;28;20084;-85
2022/10/23 01:35:33;;;;;;;6.28;3.92;;;;;;;;;;1032641;28;20045;-86
2022/10/23 01:36:05;;;;;;;6.32;4.13;;;;;;;;;;1034934;28;20014;-87
2022/10/23 01:36:38;;;;;;;6.30;4.18;;;;;;;;;;1038835;28;20576;-85
2022/10/23 01:37:11;;;;;;;6.43;4.78;;;;;;;;;;1035157;28;20076;-85
2022/10/23 01:37:43;;;;;;;7.15;4.28;;;;;;;;;;1035173;28;20026;-85
2022/10/23 01:38:17;;;;;;;10.73;5.00;;;;;;;;;;1032295;28;20026;-87
2022/10/23 01:38:55;;;;;;;8.85;4.22;;;;;;;;;;1035070;28;20018;-86
2022/10/23 01:39:32;;;;;;;6.40;4.35;;;;;;;;;;1035051;28;20445;-86
2022/10/23 01:40:05;;;;;;;9.40;4.20;;;;;;;;;;1031529;28;20030;-84
2022/10/23 01:40:39;;;;;;;8.57;3.95;;;;;;;;;;1042432;28;20045;-86
2022/10/23 01:41:12;;;;;;;7.18;4.70;;;;;;;;;;1038681;28;20083;-86
2022/10/23 01:41:45;;;;;;;12.07;5.50;;;;;;;;;;1036418;28;20029;-85
2022/10/23 01:42:19;;;;;;;10.38;5.10;;;;;;;;;;1034748;28;20472;-85
2022/10/23 01:42:53;;;;;;;9.13;4.88;;;;;;;;;;1034836;28;20152;-85
2022/10/23 01:43:26;;;;;;;7.32;4.82;;;;;;;;;;1037139;28;20525;-85
2022/10/23 01:44:06;;;;;;;7.93;4.22;;;;;;;;;;1038765;28;20846;-85
2022/10/23 01:44:37;;;;;;;8.75;5.03;;;;;;;;;;1034956;28;20036;-86
2022/10/23 01:45:12;;;;;;;5.95;4.00;;;;;;;;;;1032465;28;20034;-85
2022/10/23 01:45:45;;;;;;;7.32;4.82;;;;;;;;;;1035694;28;20026;-85
2022/10/23 01:46:17;;;;;;;6.90;4.45;;;;;;;;;;1031745;28;20019;-86
2022/10/23 01:46:49;;;;;;;6.72;3.88;;;;;;;;;;1030747;28;20026;-86
2022/10/23 01:47:22;;;;;;;6.75;4.45;;;;;;;;;;1030835;28;20018;-84
2022/10/23 01:47:54;;;;;;;15.20;5.65;;;;;;;;;;1031929;28;20132;-84
2022/10/23 01:48:27;;;;;;;6.38;4.85;;;;;;;;;;1036673;28;20130;-84
2022/10/23 01:49:00;;;;;;;8.63;5.28;;;;;;;;;;1038606;28;20140;-85
2022/10/23 01:49:31;;;;;;;11.32;5.75;;;;;;;;;;1038942;28;20089;-85
2022/10/23 01:50:05;;;;;;;7.60;4.35;;;;;;;;;;1034823;28;20080;-85
2022/10/23 01:50:37;;;;;;;5.18;4.10;;;;;;;;;;1035787;28;20052;-84
2022/10/23 01:51:11;;;;;;;10.57;5.25;;;;;;;;;;1039839;28;20037;-85
2022/10/23 01:51:44;;;;;;;7.43;4.53;;;;;;;;;;1034878;28;20033;-85
2022/10/23 01:52:16;;;;;;;7.75;4.30;;;;;;;;;;1034928;28;20037;-86
2022/10/23 01:52:47;;;;;;;5.85;4.35;;;;;;;;;;1035929;28;20022;-86
2022/10/23 01:53:20;;;;;;;8.23;4.43;;;;;;;;;;1036248;28;20049;-85
2022/10/23 01:53:55;;;;;;;11.35;4.47;;;;;;;;;;1036121;28;20570;-84
2022/10/23 01:54:38;;;;;;;6.65;4.25;;;;;;;;;;1035751;28;20022;-86
2022/10/23 01:55:10;;;;;;;7.10;3.95;;;;;;;;;;1038755;28;20563;-85
2022/10/23 01:55:41;;;;;;;7.85;4.05;;;;;;;;;;1038897;28;20030;-85
2022/10/23 01:56:14;;;;;;;8.05;4.43;;;;;;;;;;1039467;28;20021;-85
2022/10/23 01:56:48;;;;;;;7.38;4.28;;;;;;;;;;1039030;28;20036;-85
2022/10/23 01:57:20;;;;;;;8.98;5.22;;;;;;;;;;1037160;28;20389;-86
2022/10/23 01:57:52;;;;;;;5.00;4.32;;;;;;;;;;1035931;28;20069;-85
2022/10/23 01:58:25;;;;;;;7.38;4.28;;;;;;;;;;1039985;28;20179;-85
2022/10/23 01:58:58;;;;;;;7.13;4.97;;;;;;;;;;1037985;28;20056;-85
2022/10/23 01:59:31;;;;;;;6.63;4.38;;;;;;;;;;1039102;28;20454;-86
2022/10/23 02:00:10;;;;;;;6.93;4.68;;;;;;;;;;1039192;28;20071;-86
2022/10/23 02:00:44;;;;;;;7.05;4.75;;;;;;;;;;1041153;28;20068;-84
2022/10/23 02:01:17;;;;;;;6.10;3.83;;;;;;;;;;1041860;28;20025;-86
2022/10/23 02:01:50;;;;;;;7.05;4.13;;;;;;;;;;1038969;28;20036;-84
2022/10/23 02:02:22;;;;;;;5.18;3.90;;;;;;;;;;1036042;28;20048;-86
2022/10/23 02:02:54;;;;;;;10.80;4.82;;;;;;;;;;1030803;28;20409;-85
2022/10/23 02:03:26;;;;;;;5.32;4.55;;;;;;;;;;1031046;28;20034;-85
2022/10/23 02:03:59;;;;;;;8.60;4.32;;;;;;;;;;1032499;28;20061;-84
2022/10/23 02:04:32;;;;;;;5.82;4.32;;;;;;;;;;1030953;28;20026;-85
2022/10/23 02:05:07;;;;;;;6.85;4.80;;;;;;;;;;1026764;28;20022;-86
2022/10/23 02:05:38;;;;;;;5.68;4.05;;;;;;;;;;1025918;28;20031;-85
2022/10/23 02:06:09;;;;;;;7.93;4.28;;;;;;;;;;1032975;28;20463;-85
2022/10/23 02:06:40;;;;;;;8.95;4.05;;;;;;;;;;1032098;28;20453;-85
2022/10/23 02:07:11;;;;;;;8.23;4.45;;;;;;;;;;1034993;28;20476;-84
2022/10/23 02:07:43;;;;;;;7.75;4.38;;;;;;;;;;1034992;28;20052;-85
2022/10/23 02:08:14;;;;;;;8.68;4.45;;;;;;;;;;1034872;28;20022;-85
2022/10/23 02:08:45;;;;;;;7.13;4.43;;;;;;;;;;1035714;28;20446;-85
2022/10/23 02:09:16;;;;;;;8.75;4.63;;;;;;;;;;1037990;28;20025;-85
2022/10/23 02:09:47;;;;;;;7.88;4.35;;;;;;;;;;1043277;28;20025;-85
2022/10/23 02:10:19;;;;;;;11.93;4.30;;;;;;;;;;1038761;28;20018;-86
2022/10/23 02:11:08;;;;;;;6.13;4.00;;;;;;;;;;1039088;28;20112;-85
2022/10/23 02:11:42;;;;;;;5.47;4.28;;;;;;;;;;1038286;28;20420;-85
2022/10/23 02:12:18;;;;;;;4.80;3.78;;;;;;;;;;1030813;28;20022;-85
2022/10/23 02:12:58;;;;;;;5.00;4.22;;;;;;;;;;1038555;28;20052;-85
2022/10/23 02:13:29;;;;;;;8.32;4.28;;;;;;;;;;1037199;28;20029;-86
2022/10/23 02:14:06;;;;;;;6.43;4.10;;;;;;;;;;1033734;28;20021;-86
2022/10/23 02:14:41;;;;;;;5.55;4.47;;;;;;;;;;1031734;28;20035;-85
2022/10/23 02:15:27;;;;;;;8.02;4.35;;;;;;;;;;1036597;28;20047;-85
2022/10/23 02:16:08;;;;;;;7.47;4.65;;;;;;;;;;1039029;28;20076;-87
2022/10/23 02:16:46;;;;;;;6.32;4.00;;;;;;;;;;1035857;28;20048;-87
2022/10/23 02:17:35;;;;;;;8.02;4.47;;;;;;;;;;1039052;28;20100;-86
2022/10/23 02:18:09;;;;;;;8.15;4.60;;;;;;;;;;1034790;28;20033;-85
2022/10/23 02:19:03;;;;;;;8.32;4.63;;;;;;;;;;1039072;28;20112;-86
2022/10/23 02:19:42;;;;;;;6.97;4.53;;;;;;;;;;1034648;28;20527;-85
2022/10/23 02:20:15;;;;;;;9.43;4.65;;;;;;;;;;1027059;28;20565;-86
2022/10/23 02:20:53;;;;;;;9.85;3.92;;;;;;;;;;1030923;28;20030;-85
2022/10/23 02:21:29;;;;;;;9.02;4.13;;;;;;;;;;1035548;28;20037;-85
2022/10/23 02:22:14;;;;;;;10.63;4.35;;;;;;;;;;1038929;28;20017;-86
2022/10/23 02:22:52;;;;;;;5.70;4.30;;;;;;;;;;1038879;28;20104;-86
2022/10/23 02:23:30;;;;;;;8.50;4.20;;;;;;;;;;1038828;28;20021;-86
2022/10/23 02:24:03;;;;;;;5.85;3.75;;;;;;;;;;1039931;28;20072;-87
2022/10/23 02:24:36;;;;;;;7.95;4.40;;;;;;;;;;1039076;28;20116;-87
2022/10/23 02:25:18;;;;;;;5.13;3.97;;;;;;;;;;1042155;28;20056;-85
2022/10/23 02:25:59;;;;;;;13.90;5.20;;;;;;;;;;1043075;28;20381;-85
2022/10/23 02:26:35;;;;;;;8.43;4.45;;;;;;;;;;1039463;28;20030;-85
2022/10/23 02:27:14;;;;;;;7.25;4.05;;;;;;;;;;1038812;28;20026;-86
2022/10/23 02:27:50;;;;;;;5.55;4.13;;;;;;;;;;1042548;28;20029;-85
2022/10/23 02:28:32;;;;;;;6.47;3.85;;;;;;;;;;1038846;28;20025;-85
2022/10/23 02:29:12;;;;;;;8.05;4.35;;;;;;;;;;1034530;28;20112;-84
2022/10/23 02:29:46;;;;;;;6.32;3.75;;;;;;;;;;1034603;28;20018;-87
2022/10/23 02:30:18;;;;;;;10.60;4.30;;;;;;;;;;1038059;28;20393;-86
2022/10/23 02:30:49;;;;;;;5.75;4.38;;;;;;;;;;1036901;28;20381;-87
2022/10/23 02:31:21;;;;;;;8.43;4.30;;;;;;;;;;1034844;28;20032;-86
2022/10/23 02:31:52;;;;;;;5.13;3.70;;;;;;;;;;1029262;28;20015;-86
2022/10/23 02:32:26;;;;;;;4.55;4.00;;;;;;;;;;1031291;28;20044;-87
2022/10/23 02:32:57;;;;;;;8.60;4.38;;;;;;;;;;1031573;28;20026;-86
2022/10/23 02:33:29;;;;;;;6.80;4.28;;;;;;;;;;1031264;28;20026;-87
2022/10/23 02:34:00;;;;;;;6.55;4.07;;;;;;;;;;1030830;28;20042;-85
2022/10/23 02:34:31;;;;;;;6.25;4.70;;;;;;;;;;1032116;28;20049;-85
2022/10/23 02:35:02;;;;;;;5.32;4.22;;;;;;;;;;1031902;28;20050;-88
2022/10/23 02:35:33;;;;;;;8.38;3.72;;;;;;;;;;1034982;28;20601;-86
2022/10/23 02:36:04;;;;;;;4.63;3.88;;;;;;;;;;1035088;28;20464;-86
2022/10/23 02:36:35;;;;;;;7.05;4.20;;;;;;;;;;1031234;28;20243;-85
2022/10/23 02:37:06;;;;;;;5.15;3.40;;;;;;;;;;1035752;28;20476;-85
2022/10/23 02:37:37;;;;;;;8.10;4.30;;;;;;;;;;1035207;28;20677;-86
2022/10/23 02:38:27;;;;;;;9.23;4.45;;;;;;;;;;1035002;28;20294;-87
2022/10/23 02:38:58;;;;;;;6.50;4.28;;;;;;;;;;1026749;28;20023;-85
2022/10/23 02:39:29;;;;;;;6.85;4.10;;;;;;;;;;1034101;28;20053;-85
2022/10/23 02:40:02;;;;;;;5.90;3.95;;;;;;;;;;1034733;28;20034;-86
2022/10/23 02:40:40;;;;;;;8.00;3.40;;;;;;;;;;1037489;28;20025;-86
2022/10/23 02:41:17;;;;;;;5.38;3.33;;;;;;;;;;1036510;28;20065;-85
2022/10/23 02:41:55;;;;;;;7.78;3.58;;;;;;;;;;1033688;28;20022;-85
2022/10/23 02:42:26;;;;;;;8.55;3.80;;;;;;;;;;1034781;28;20030;-86
2022/10/23 02:43:01;;;;;;;5.88;4.28;;;;;;;;;;1032659;28;20117;-86
2022/10/23 02:43:37;;;;;;;5.85;4.13;;;;;;;;;;1032635;28;20022;-86
2022/10/23 02:44:17;;;;;;;3.67;3.30;;;;;;;;;;1026596;28;20094;-85
2022/10/23 02:45:04;;;;;;;5.15;3.78;;;;;;;;;;1026313;28;20403;-84
2022/10/23 02:45:35;;;;;;;6.72;4.15;;;;;;;;;;1028747;28;20098;-86
2022/10/23 02:46:06;;;;;;;7.38;3.13;;;;;;;;;;1032420;28;20030;-87
2022/10/23 02:46:40;;;;;;;5.22;3.88;;;;;;;;;;1030833;28;20581;-86
2022/10/23 02:47:30;;;;;;;6.18;4.65;;;;;;;;;;1032131;28;20425;-85
2022/10/23 02:48:07;;;;;;;6.45;3.50;;;;;;;;;;1030868;28;20026;-85
2022/10/23 02:48:42;;;;;;;6.45;3.95;;;;;;;;;;1030547;28;20379;-87
2022/10/23 02:49:19;;;;;;;4.85;3.25;;;;;;;;;;1035174;28;20018;-86
2022/10/23 02:49:58;;;;;;;5.30;3.70;;;;;;;;;;1035938;28;20028;-85
2022/10/23 02:50:49;;;;;;;7.30;4.38;;;;;;;;;;1033453;28;20073;-85
2022/10/23 02:51:31;;;;;;;6.40;4.18;;;;;;;;;;1034873;28;20536;-86
2022/10/23 02:52:05;;;;;;;5.80;4.03;;;;;;;;;;1032789;28;20114;-86
2022/10/23 02:52:49;;;;;;;6.10;3.97;;;;;;;;;;1034979;28;20026;-86
2022/10/23 02:53:29;;;;;;;7.40;3.85;;;;;;;;;;1034686;28;20022;-86
2022/10/23 02:54:29;;;;;;;7.25;4.30;;;;;;;;;;1034344;28;20025;-87
2022/10/23 02:55:03;;;;;;;4.32;3.30;;;;;;;;;;1028461;28;20023;-85
2022/10/23 02:55:34;;;;;;;7.72;4.22;;;;;;;;;;1035039;28;20533;-86
2022/10/23 02:56:07;;;;;;;9.97;4.13;;;;;;;;;;1034927;28;20559;-86
2022/10/23 02:56:55;;;;;;;7.57;4.20;;;;;;;;;;1033816;28;20264;-85
2022/10/23 02:57:31;;;;;;;6.63;3.63;;;;;;;;;;1034624;28;20022;-87
2022/10/23 02:58:10;;;;;;;8.00;3.83;;;;;;;;;;1035024;28;20026;-85
2022/10/23 02:59:02;;;;;;;8.70;3.55;;;;;;;;;;1039945;28;20108;-86
2022/10/23 02:59:47;;;;;;;6.72;3.80;;;;;;;;;;1039010;28;20021;-86
2022/10/23 03:00:19;;;;;;;8.38;4.10;;;;;;;;;;1038798;28;20431;-86
2022/10/23 03:00:53;;;;;;;8.70;4.10;;;;;;;;;;1034784;28;20026;-85
2022/10/23 03:01:26;;;;;;;6.05;3.63;;;;;;;;;;1030855;28;20034;-85
2022/10/23 03:02:01;;;;;;;7.13;3.53;;;;;;;;;;1030565;28;20026;-86
2022/10/23 03:02:36;;;;;;;7.82;3.60;;;;;;;;;;1031875;28;20018;-85
2022/10/23 03:03:15;;;;;;;6.20;4.32;;;;;;;;;;1026816;28;20027;-86
2022/10/23 03:03:46;;;;;;;;;;;;;;;;;;1031176;28;20027;-85
2022/10/23 03:04:18;;;;;;;6.23;3.97;;;;;;;;;;1036558;28;19921;-86
2022/10/23 03:04:50;;;;;;;6.65;3.30;;;;;;;;;;1033916;28;20412;-86
2022/10/23 03:05:23;;;;;;;6.13;3.55;;;;;;;;;;1034995;28;20037;-86
2022/10/23 03:05:54;;;;;;;5.88;4.32;;;;;;;;;;1038679;28;20033;-86
2022/10/23 03:06:25;;;;;;;7.43;3.80;;;;;;;;;;1034571;28;20088;-86
2022/10/23 03:06:56;;;;;;;6.55;3.83;;;;;;;;;;1034709;28;20049;-86
2022/10/23 03:07:27;;;;;;;6.95;3.55;;;;;;;;;;1038601;28;20029;-87
2022/10/23 03:07:58;;;;;;;4.25;3.55;;;;;;;;;;1034510;28;20026;-86
2022/10/23 03:08:29;;;;;;;6.45;3.50;;;;;;;;;;1035404;28;20029;-86
2022/10/23 03:09:04;;;;;;;5.00;3.45;;;;;;;;;;1036454;28;20022;-85
2022/10/23 03:09:36;;;;;;;4.90;3.30;;;;;;;;;;1034795;28;20030;-86
2022/10/23 03:10:08;;;;;;;5.15;3.67;;;;;;;;;;1035593;28;20452;-86
2022/10/23 03:10:40;;;;;;;7.10;3.20;;;;;;;;;;1036185;28;20073;-86
2022/10/23 03:11:11;;;;;;;9.45;4.45;;;;;;;;;;1038718;28;20030;-85
2022/10/23 03:11:41;;;;;;;7.82;4.38;;;;;;;;;;1034769;28;20018;-86
2022/10/23 03:12:13;;;;;;;5.57;3.60;;;;;;;;;;1034919;28;20564;-85
2022/10/23 03:12:45;;;;;;;8.65;3.30;;;;;;;;;;1031788;28;20031;-86
2022/10/23 03:13:16;;;;;;;4.45;3.33;;;;;;;;;;1034743;28;20018;-85
2022/10/23 03:13:48;;;;;;;5.55;3.50;;;;;;;;;;1035335;28;20020;-85
2022/10/23 03:14:19;;;;;;;6.68;3.70;;;;;;;;;;1035499;28;20080;-85
2022/10/23 03:14:49;;;;;;;5.05;3.45;;;;;;;;;;1038587;28;20025;-85
2022/10/23 03:15:21;;;;;;;8.32;4.32;;;;;;;;;;1031857;28;20022;-86
2022/10/23 03:15:52;;;;;;;6.10;3.58;;;;;;;;;;1034415;28;20022;-86
2022/10/23 03:16:23;;;;;;;4.63;3.90;;;;;;;;;;1035161;28;20064;-85
2022/10/23 03:16:54;;;;;;;11.55;4.55;;;;;;;;;;1034803;28;20159;-84
2022/10/23 03:17:25;;;;;;;9.73;4.15;;;;;;;;;;1038106;28;20021;-85
2022/10/23 03:17:56;;;;;;;6.60;3.50;;;;;;;;;;1032079;28;20077;-87
2022/10/23 03:18:27;;;;;;;5.32;3.13;;;;;;;;;;1027137;28;20514;-86
2022/10/23 03:18:58;;;;;;;7.60;3.50;;;;;;;;;;1026821;28;20034;-86
2022/10/23 03:19:28;;;;;;;4.70;3.25;;;;;;;;;;1030945;28;20572;-86
2022/10/23 03:19:59;;;;;;;8.45;4.00;;;;;;;;;;1030847;28;20022;-86
2022/10/23 03:20:30;;;;;;;7.57;3.70;;;;;;;;;;1031872;28;20213;-86
2022/10/23 03:21:01;;;;;;;5.07;3.03;;;;;;;;;;1033403;28;20314;-86
2022/10/23 03:21:32;;;;;;;3.70;2.67;;;;;;;;;;1034540;28;20018;-85
2022/10/23 03:22:03;;;;;;;5.55;3.58;;;;;;;;;;1034892;28;20025;-85
2022/10/23 03:22:34;;;;;;;5.13;3.08;;;;;;;;;;1034114;28;20140;-85
2022/10/23 03:23:05;;;;;;;5.47;3.38;;;;;;;;;;1035669;28;20433;-85
2022/10/23 03:23:36;;;;;;;5.80;3.22;;;;;;;;;;1039129;28;20021;-86
2022/10/23 03:24:07;;;;;;;6.40;4.57;;;;;;;;;;1034994;28;20025;-85
2022/10/23 03:24:38;;;;;;;8.43;3.33;;;;;;;;;;1034790;28;20113;-85